Time;durP1;ratioP1;P1;durP2;ratioP2;P2;SDS_P1;SDS_P2;PMS_P1;PMS_P2;Temp;Humidity;BMP_temperature;BMP_pressure;BME280_temperature;BME280_humidity;BME280_pressure;Samples;Min_cycle;Max_cycle;Signal;HPM_P1;HPM_P2
2023/07/19 00:01:46;;;;;;;4.57;4.53;;;;;;;-145.94;59.62;76357.88;5113642;28;20215;-66
2023/07/19 00:04:13;;;;;;;4.30;4.20;;;;;;;-145.94;59.67;76363.97;5113864;28;20280;-66
2023/07/19 00:06:39;;;;;;;4.20;3.90;;;;;;;-145.94;59.21;76361.94;5113646;28;20185;-66
2023/07/19 00:09:06;;;;;;;4.17;4.17;;;;;;;-145.94;59.27;76359.91;5117618;28;20181;-66
2023/07/19 00:11:32;;;;;;;4.23;4.23;;;;;;;-145.94;59.26;76359.91;5117829;28;20531;-66
2023/07/19 00:13:59;;;;;;;4.07;3.97;;;;;;;-145.94;59.68;76363.97;5118147;28;20174;-67
2023/07/19 00:16:25;;;;;;;4.37;4.10;;;;;;;-145.94;59.89;76361.94;5118031;28;20564;-67
2023/07/19 00:18:51;;;;;;;5.30;5.10;;;;;;;-145.94;59.76;76363.97;5118260;28;20647;-67
2023/07/19 00:21:25;;;;;;;3.90;3.90;;;;;;;-145.94;60.04;76359.91;5117614;28;20177;-67
2023/07/19 00:23:52;;;;;;;4.60;4.27;;;;;;;-145.94;60.30;76361.94;5117531;28;20683;-67
2023/07/19 00:26:18;;;;;;;4.97;4.70;;;;;;;-145.94;59.73;76363.97;5117579;28;20246;-67
2023/07/19 00:28:44;;;;;;;4.53;4.43;;;;;;;-145.94;59.84;76361.94;5099264;28;20246;-66
2023/07/19 00:31:11;;;;;;;4.80;4.70;;;;;;;-145.94;59.93;76366.03;5117459;28;20321;-66
2023/07/19 00:33:37;;;;;;;4.30;4.10;;;;;;;-145.94;59.88;76368.06;5117308;28;20228;-66
2023/07/19 00:36:04;;;;;;;4.10;4.10;;;;;;;-145.94;59.64;76368.06;5099369;28;20743;-66
2023/07/19 00:38:31;;;;;;;4.67;4.60;;;;;;;-145.94;59.63;76370.09;5117910;28;20185;-66
2023/07/19 00:40:57;;;;;;;3.60;3.60;;;;;;;-145.94;60.17;76374.19;5117863;28;20189;-66
2023/07/19 00:43:23;;;;;;;4.73;4.53;;;;;;;-145.94;60.12;76378.25;5117368;28;20205;-66
2023/07/19 00:45:54;;;;;;;4.03;3.93;;;;;;;-145.94;60.43;76368.06;5117753;28;20189;-66
2023/07/19 00:48:21;;;;;;;4.30;4.20;;;;;;;-145.94;60.78;76374.19;5117110;28;20258;-66
2023/07/19 00:50:50;;;;;;;4.67;4.57;;;;;;;-145.94;60.52;76374.19;5098833;28;20193;-66
2023/07/19 00:53:17;;;;;;;4.73;4.43;;;;;;;-145.94;60.76;76382.34;5117515;28;20201;-67
2023/07/19 00:55:48;;;;;;;5.27;4.90;;;;;;;-145.94;60.56;76388.44;5117023;28;20246;-67
2023/07/19 00:58:16;;;;;;;5.17;4.87;;;;;;;-145.94;60.83;76392.53;5098771;28;20180;-66
2023/07/19 01:00:42;;;;;;;4.50;4.30;;;;;;;-145.94;60.66;76388.44;5117207;28;20651;-66
2023/07/19 01:03:09;;;;;;;5.20;5.10;;;;;;;-145.94;61.20;76394.56;5116752;28;20205;-67
2023/07/19 01:05:35;;;;;;;5.27;4.67;;;;;;;-145.94;60.93;76392.53;5116805;28;20193;-66
2023/07/19 01:08:02;;;;;;;4.80;4.67;;;;;;;-145.94;60.72;76396.59;5098616;28;20687;-66
2023/07/19 01:10:29;;;;;;;4.50;4.30;;;;;;;-145.94;61.13;76402.72;5098517;28;20188;-66
2023/07/19 01:13:07;;;;;;;12.27;4.83;;;;;;;-145.94;61.04;76406.81;5117161;28;20205;-67
2023/07/19 01:15:36;;;;;;;5.27;5.10;;;;;;;-145.94;61.40;76408.84;5116995;28;20322;-67
2023/07/19 01:18:03;;;;;;;5.10;5.10;;;;;;;-145.94;61.71;76417.00;5116428;28;20185;-67
2023/07/19 01:20:31;;;;;;;5.10;4.80;;;;;;;-145.94;61.60;76421.06;5097420;28;20197;-67
2023/07/19 01:22:58;;;;;;;4.33;4.23;;;;;;;-145.94;61.65;76431.28;5098116;28;20208;-66
2023/07/19 01:25:24;;;;;;;4.87;4.47;;;;;;;-145.94;61.64;76437.38;5116702;28;20591;-66
2023/07/19 01:27:51;;;;;;;4.40;4.30;;;;;;;-145.94;61.58;76435.34;5116651;28;20177;-66
2023/07/19 01:30:17;;;;;;;4.43;4.10;;;;;;;-145.94;61.69;76435.34;5098143;28;20205;-66
2023/07/19 01:32:47;;;;;;;5.07;4.77;;;;;;;-145.94;61.68;76439.41;5116448;28;20204;-67
2023/07/19 01:35:13;;;;;;;4.63;4.43;;;;;;;-145.94;61.74;76429.22;5116571;28;20197;-66
2023/07/19 01:37:40;;;;;;;4.63;4.53;;;;;;;-145.94;61.60;76427.19;5116811;28;20584;-66
2023/07/19 01:40:09;;;;;;;4.37;4.20;;;;;;;-145.94;61.99;76427.19;5116451;28;20591;-66
2023/07/19 01:42:35;;;;;;;4.80;4.70;;;;;;;-145.94;61.88;76425.16;5116187;28;20258;-66
2023/07/19 01:45:02;;;;;;;4.27;4.17;;;;;;;-145.94;62.11;76425.16;5116009;28;20217;-66
2023/07/19 01:47:28;;;;;;;4.53;4.43;;;;;;;-145.94;61.77;76425.16;5097778;28;20193;-66
2023/07/19 01:49:55;;;;;;;4.57;4.47;;;;;;;-145.94;62.27;76423.13;5097681;28;20185;-66
2023/07/19 01:52:22;;;;;;;4.93;4.70;;;;;;;-145.94;62.01;76427.19;5116187;28;20266;-67
2023/07/19 01:54:51;;;;;;;4.90;4.80;;;;;;;-145.94;62.43;76423.13;5097705;28;20189;-67
2023/07/19 01:57:17;;;;;;;5.20;4.80;;;;;;;-145.94;62.36;76421.06;5116116;28;20242;-67
2023/07/19 01:59:44;;;;;;;4.90;4.63;;;;;;;-145.94;62.08;76423.13;5097546;28;20811;-67
2023/07/19 02:02:10;;;;;;;4.83;4.63;;;;;;;-145.94;62.30;76427.19;5097642;28;20209;-67
2023/07/19 02:04:37;;;;;;;4.43;4.20;;;;;;;-145.94;62.54;76423.13;5097358;28;20213;-66
2023/07/19 02:07:04;;;;;;;4.23;4.20;;;;;;;-145.94;62.52;76417.00;5097322;28;20291;-66
2023/07/19 02:09:30;;;;;;;4.83;4.73;;;;;;;-145.94;62.39;76423.13;5097356;28;20192;-66
2023/07/19 02:11:58;;;;;;;4.87;4.77;;;;;;;-145.94;62.04;76433.31;5115540;28;20201;-67
2023/07/19 02:14:25;;;;;;;5.13;4.97;;;;;;;-145.94;62.19;76445.53;5097525;28;20559;-67
2023/07/19 02:16:51;;;;;;;4.63;4.53;;;;;;;-145.94;62.23;76447.56;5115463;28;20185;-66
2023/07/19 02:19:18;;;;;;;4.10;4.10;;;;;;;-145.94;62.40;76457.78;5097552;28;20193;-66
2023/07/19 02:21:44;;;;;;;4.63;4.53;;;;;;;-145.94;62.63;76453.69;5097034;28;20740;-66
2023/07/19 02:24:15;;;;;;;5.30;5.20;;;;;;;-145.94;62.65;76465.94;5096939;28;20266;-66
2023/07/19 02:26:41;;;;;;;4.93;4.63;;;;;;;-145.94;62.69;76467.97;5115543;28;20181;-66
2023/07/19 02:29:08;;;;;;;4.53;4.40;;;;;;;-145.94;62.74;76474.09;5096799;28;20189;-66
2023/07/19 02:31:35;;;;;;;5.43;5.00;;;;;;;-145.94;63.04;76474.09;5096513;28;20225;-66
2023/07/19 02:34:04;;;;;;;5.03;4.93;;;;;;;-145.94;63.12;76478.16;5115364;28;20226;-66
2023/07/19 02:36:31;;;;;;;5.37;5.17;;;;;;;-145.94;62.98;76478.16;5096832;28;20188;-66
2023/07/19 02:38:57;;;;;;;5.17;4.73;;;;;;;-145.94;63.52;76496.50;5115319;28;20192;-66
2023/07/19 02:41:24;;;;;;;7.90;4.87;;;;;;;-145.94;63.78;76512.81;5096752;28;20201;-67
2023/07/19 02:43:50;;;;;;;5.00;4.70;;;;;;;-145.94;63.99;76516.91;5113590;28;20208;-67
2023/07/19 02:46:17;;;;;;;6.10;5.80;;;;;;;-145.94;64.70;76516.91;5096648;28;20193;-67
2023/07/19 02:48:43;;;;;;;6.20;5.53;;;;;;;-145.94;64.87;76520.97;5115085;28;20181;-67
2023/07/19 02:51:10;;;;;;;4.93;4.73;;;;;;;-145.94;65.17;76518.94;5096560;28;20238;-67
2023/07/19 02:53:37;;;;;;;6.07;5.17;;;;;;;-145.94;65.14;76523.03;5114629;28;20205;-67
2023/07/19 02:56:04;;;;;;;5.43;5.23;;;;;;;-145.94;65.25;76514.88;5097282;28;20224;-67
2023/07/19 02:58:30;;;;;;;6.43;6.00;;;;;;;-145.94;65.34;76506.72;5096421;28;20192;-67
2023/07/19 03:00:57;;;;;;;6.20;5.90;;;;;;;-145.94;65.24;76498.56;5114912;28;20185;-66
2023/07/19 03:03:23;;;;;;;6.03;5.57;;;;;;;-145.94;65.32;76494.47;5114653;28;20219;-66
2023/07/19 03:05:50;;;;;;;5.27;5.07;;;;;;;-145.94;65.51;76484.28;5114746;28;20176;-66
2023/07/19 03:08:16;;;;;;;5.93;5.53;;;;;;;-145.94;64.89;76488.34;5114734;28;20192;-66
2023/07/19 03:10:43;;;;;;;5.90;5.67;;;;;;;-145.94;64.80;76482.25;5114697;28;20255;-66
2023/07/19 03:13:10;;;;;;;5.60;5.50;;;;;;;-145.94;64.65;76478.16;5096079;28;20209;-66
2023/07/19 03:15:36;;;;;;;6.10;5.60;;;;;;;-145.94;64.80;76478.16;5114328;28;20186;-66
2023/07/19 03:18:03;;;;;;;5.83;5.63;;;;;;;-145.94;64.56;76482.25;5096019;28;20554;-66
2023/07/19 03:20:31;;;;;;;8.80;5.13;;;;;;;-145.94;64.69;76478.16;5096015;28;20185;-66
2023/07/19 03:23:00;;;;;;;6.17;4.80;;;;;;;-145.94;64.63;76478.16;5095838;28;20217;-66
2023/07/19 03:25:28;;;;;;;5.40;5.20;;;;;;;-145.94;64.50;76478.16;5112784;28;20234;-66
2023/07/19 03:27:56;;;;;;;5.63;5.20;;;;;;;-145.94;64.45;76478.16;5095921;28;20567;-66
2023/07/19 03:30:23;;;;;;;5.73;5.53;;;;;;;-145.94;64.41;76472.03;5114066;28;20201;-66
2023/07/19 03:32:51;;;;;;;5.60;5.30;;;;;;;-145.94;64.47;76476.13;5114000;28;20209;-67
2023/07/19 03:35:18;;;;;;;5.83;5.57;;;;;;;-145.94;64.51;76484.28;5095916;28;20238;-67
2023/07/19 03:37:47;;;;;;;6.00;5.70;;;;;;;-145.94;64.11;76488.34;5095751;28;20609;-67
2023/07/19 03:40:14;;;;;;;5.17;4.93;;;;;;;-145.94;63.95;76486.31;5096498;28;20189;-67
2023/07/19 03:42:42;;;;;;;5.40;4.90;;;;;;;-145.94;63.81;76490.41;5095504;28;20648;-67
2023/07/19 03:45:09;;;;;;;5.30;4.87;;;;;;;-145.94;63.46;76484.28;5112505;28;20205;-67
2023/07/19 03:47:35;;;;;;;6.73;5.00;;;;;;;-145.94;63.27;76484.28;5113780;28;20655;-66
2023/07/19 03:50:04;;;;;;;5.43;4.93;;;;;;;-145.94;63.27;76480.19;5095544;28;20202;-66
2023/07/19 03:52:31;;;;;;;7.07;5.30;;;;;;;-145.94;63.02;76488.34;5095480;28;20583;-66
2023/07/19 03:54:58;;;;;;;5.63;5.47;;;;;;;-145.94;63.29;76498.56;5114003;28;20785;-67
2023/07/19 03:57:29;;;;;;;6.23;5.67;;;;;;;-145.94;62.93;76506.72;5096368;28;20192;-67
2023/07/19 03:59:56;;;;;;;5.87;5.77;;;;;;;-145.94;63.13;76506.72;5113970;28;20212;-67
2023/07/19 04:02:22;;;;;;;5.87;5.50;;;;;;;-145.94;63.01;76494.47;5095351;28;20232;-67
2023/07/19 04:04:49;;;;;;;4.83;4.63;;;;;;;-145.94;63.18;76492.44;5095582;28;20216;-67
2023/07/19 04:07:16;;;;;;;4.97;4.80;;;;;;;-145.94;63.02;76490.41;5095637;28;20287;-67
2023/07/19 04:09:44;;;;;;;5.50;5.00;;;;;;;-145.94;62.71;76494.47;5113919;28;20189;-67
2023/07/19 04:12:10;;;;;;;5.33;4.93;;;;;;;-145.94;62.49;76480.19;5113511;28;20205;-67
2023/07/19 04:14:38;;;;;;;5.13;4.90;;;;;;;-145.94;62.49;76474.09;5095282;28;20272;-67
2023/07/19 04:17:05;;;;;;;4.67;4.47;;;;;;;-145.94;62.06;76467.97;5095725;28;20196;-66
2023/07/19 04:19:31;;;;;;;4.97;4.77;;;;;;;-145.94;61.95;76467.97;5095302;28;20655;-66
2023/07/19 04:21:58;;;;;;;5.00;4.73;;;;;;;-145.94;62.37;76461.84;5095237;28;20213;-67
2023/07/19 04:24:24;;;;;;;4.43;4.20;;;;;;;-145.94;62.52;76451.66;5095092;28;20220;-66
2023/07/19 04:26:51;;;;;;;8.90;5.03;;;;;;;-145.94;62.39;76447.56;5078500;28;20192;-66
2023/07/19 04:29:19;;;;;;;4.87;4.77;;;;;;;-145.94;62.72;76443.50;5095078;28;20193;-66
2023/07/19 04:31:46;;;;;;;5.67;5.37;;;;;;;-145.94;62.55;76435.34;5095141;28;20228;-67
2023/07/19 04:34:12;;;;;;;5.63;4.80;;;;;;;-145.94;62.80;76435.34;5113918;28;20246;-67
2023/07/19 04:36:39;;;;;;;4.70;4.50;;;;;;;-145.94;62.47;76431.28;5113333;28;20243;-67
2023/07/19 04:39:05;;;;;;;3.97;3.87;;;;;;;-145.94;62.85;76427.19;5113639;28;20260;-67
2023/07/19 04:41:32;;;;;;;4.97;4.87;;;;;;;-145.94;62.11;76423.13;5095061;28;20189;-67
2023/07/19 04:44:00;;;;;;;5.03;4.77;;;;;;;-145.94;61.99;76419.03;5112172;28;20209;-67
2023/07/19 04:46:27;;;;;;;9.53;4.20;;;;;;;-145.94;61.63;76406.81;5113775;28;20189;-67
2023/07/19 04:48:54;;;;;;;4.67;4.43;;;;;;;-145.94;61.68;76394.56;5095012;28;20287;-67
2023/07/19 04:51:20;;;;;;;4.10;3.93;;;;;;;-145.94;61.86;76394.56;5094934;28;20194;-66
2023/07/19 04:53:47;;;;;;;6.30;4.33;;;;;;;-145.94;62.24;76396.59;5114719;28;20192;-66
2023/07/19 04:56:14;;;;;;;4.67;4.37;;;;;;;-145.94;61.73;76390.50;5098791;28;20193;-66
2023/07/19 04:58:40;;;;;;;4.00;3.90;;;;;;;-145.94;61.99;76376.22;5098727;28;20189;-66
2023/07/19 05:01:08;;;;;;;4.97;4.73;;;;;;;-145.94;61.70;76378.25;5117416;28;20189;-66
2023/07/19 05:03:35;;;;;;;5.30;4.80;;;;;;;-145.94;60.81;76370.09;5098484;28;20636;-67
2023/07/19 05:06:02;;;;;;;4.23;4.03;;;;;;;-145.94;60.75;76368.06;5098541;28;20600;-66
2023/07/19 05:08:28;;;;;;;4.57;4.10;;;;;;;-145.94;60.56;76357.88;5098618;28;20643;-66
2023/07/19 05:10:55;;;;;;;4.57;4.23;;;;;;;-145.94;60.14;76351.75;5098665;28;20223;-66
2023/07/19 05:13:21;;;;;;;5.30;4.33;;;;;;;-145.94;60.80;76339.50;5117176;28;20243;-66
2023/07/19 05:15:48;;;;;;;16.57;4.37;;;;;;;-145.94;61.36;76337.47;5098367;28;20189;-66
2023/07/19 05:18:14;;;;;;;4.40;3.57;;;;;;;-145.94;61.50;76335.44;5098387;28;20178;-66
2023/07/19 05:20:41;;;;;;;4.50;4.33;;;;;;;-145.94;61.71;76333.41;5098356;28;20196;-66
2023/07/19 05:23:07;;;;;;;4.43;4.13;;;;;;;-145.94;61.89;76325.25;5116481;28;20208;-66
2023/07/19 05:25:34;;;;;;;3.67;3.57;;;;;;;-145.94;61.97;76323.19;5098145;28;20217;-66
2023/07/19 05:28:00;;;;;;;6.43;4.57;;;;;;;-145.94;62.32;76321.16;5116367;28;20246;-66
2023/07/19 05:30:27;;;;;;;4.30;4.03;;;;;;;-145.94;62.62;76308.94;5116487;28;20531;-66
2023/07/19 05:32:53;;;;;;;4.07;3.87;;;;;;;-145.94;62.88;76308.94;5116249;28;20205;-67
2023/07/19 05:35:20;;;;;;;5.00;4.53;;;;;;;-145.94;62.68;76308.94;5116510;28;20541;-67
2023/07/19 05:37:46;;;;;;;13.97;4.13;;;;;;;-145.94;61.71;76310.97;5116481;28;20185;-67
2023/07/19 05:40:13;;;;;;;5.20;4.70;;;;;;;-145.94;61.00;76308.94;5116161;28;20218;-67
2023/07/19 05:42:39;;;;;;;5.20;4.87;;;;;;;-145.94;60.67;76304.84;5116250;28;20763;-67
2023/07/19 05:45:07;;;;;;;4.80;4.60;;;;;;;-145.94;60.74;76300.78;5115935;28;20288;-67
2023/07/19 05:47:33;;;;;;;5.67;5.17;;;;;;;-145.94;61.00;76292.63;5116055;28;20238;-67
2023/07/19 05:50:00;;;;;;;4.77;4.67;;;;;;;-145.94;61.03;76288.53;5116297;28;20254;-67
2023/07/19 05:52:28;;;;;;;4.80;4.50;;;;;;;-145.94;61.49;76284.47;5115931;28;20197;-67
2023/07/19 05:54:55;;;;;;;4.20;4.10;;;;;;;-145.94;61.43;76278.34;5115837;28;20677;-67
2023/07/19 05:57:21;;;;;;;4.67;4.57;;;;;;;-145.94;61.70;76272.22;5116125;28;20530;-67
2023/07/19 05:59:48;;;;;;;5.63;5.03;;;;;;;-145.94;61.87;76266.13;5116003;28;20239;-67
2023/07/19 06:02:14;;;;;;;10.10;4.90;;;;;;;-145.94;61.68;76257.97;5116027;28;20729;-67
2023/07/19 06:04:41;;;;;;;10.13;5.53;;;;;;;-145.94;62.16;76255.91;5115113;28;20205;-67
2023/07/19 06:07:08;;;;;;;4.90;4.53;;;;;;;-145.94;62.19;76255.91;5115726;28;20258;-67
2023/07/19 06:09:34;;;;;;;5.80;5.30;;;;;;;-145.94;61.82;76247.75;5116155;28;20245;-67
2023/07/19 06:12:00;;;;;;;7.60;5.13;;;;;;;-145.94;61.40;76245.72;5115472;28;20687;-67
2023/07/19 06:14:27;;;;;;;5.67;5.47;;;;;;;-145.94;61.14;76243.69;5115509;28;20178;-67
2023/07/19 06:16:53;;;;;;;7.43;6.93;;;;;;;-145.94;61.05;76233.50;5115739;28;20189;-67
2023/07/19 06:19:20;;;;;;;9.10;7.57;;;;;;;-145.94;61.78;76223.28;5115960;28;20783;-67
2023/07/19 06:21:46;;;;;;;9.93;6.23;;;;;;;-145.94;61.58;76215.13;5115239;28;20219;-67
2023/07/19 06:24:13;;;;;;;6.10;5.73;;;;;;;-145.94;62.08;76204.94;5115532;28;20238;-67
2023/07/19 06:26:39;;;;;;;5.67;5.50;;;;;;;-145.94;61.71;76209.03;5115271;28;20651;-67
2023/07/19 06:29:06;;;;;;;6.97;6.27;;;;;;;-145.94;60.99;76204.94;5115201;28;20230;-67
2023/07/19 06:31:32;;;;;;;7.57;6.90;;;;;;;-145.94;60.71;76198.81;5115643;28;20612;-67
2023/07/19 06:33:59;;;;;;;7.13;6.40;;;;;;;-145.94;59.76;76190.69;5115689;28;20177;-67
2023/07/19 06:36:26;;;;;;;6.73;5.93;;;;;;;-145.94;60.03;76180.47;5115054;28;20193;-67
2023/07/19 06:38:53;;;;;;;8.10;7.23;;;;;;;-145.94;60.65;76164.16;5115340;28;20192;-67
2023/07/19 06:41:19;;;;;;;8.00;6.87;;;;;;;-145.94;59.75;76153.97;5096637;28;20193;-67
2023/07/19 06:43:46;;;;;;;8.83;7.93;;;;;;;-145.94;60.06;76147.84;5115087;28;20176;-67
2023/07/19 06:46:12;;;;;;;8.93;8.23;;;;;;;-145.94;59.23;76137.66;5114776;28;20568;-67
2023/07/19 06:48:39;;;;;;;12.00;8.30;;;;;;;-145.94;58.97;76123.41;5115416;28;20200;-67
2023/07/19 06:51:05;;;;;;;11.10;8.80;;;;;;;-145.94;57.35;76105.03;5115033;28;20189;-67
2023/07/19 06:53:32;;;;;;;9.00;8.13;;;;;;;-145.94;57.20;76096.88;5114700;28;20205;-67
2023/07/19 06:55:59;;;;;;;11.77;8.13;;;;;;;-145.94;56.86;76088.72;5114931;28;20181;-67
2023/07/19 06:58:26;;;;;;;9.87;8.73;;;;;;;-145.94;56.19;76070.38;5114929;28;20181;-67
2023/07/19 07:00:56;;;;;;;12.40;8.97;;;;;;;-145.94;55.96;76062.22;5115139;28;20226;-67
2023/07/19 07:03:23;;;;;;;13.23;7.80;;;;;;;-145.94;54.76;76058.16;5114500;28;20215;-67
2023/07/19 07:05:50;;;;;;;8.70;7.97;;;;;;;-145.94;55.16;76039.81;5114685;28;20205;-67
2023/07/19 07:08:16;;;;;;;8.70;7.00;;;;;;;-145.94;55.83;76039.81;5114454;28;20223;-67
2023/07/19 07:10:43;;;;;;;8.27;7.57;;;;;;;-145.94;54.84;76037.75;5114468;28;20181;-67
2023/07/19 07:13:10;;;;;;;10.83;7.13;;;;;;;-145.94;55.09;76027.56;5114349;28;20219;-67
2023/07/19 07:15:37;;;;;;;6.73;6.23;;;;;;;-145.94;55.30;76017.38;5114412;28;20208;-67
2023/07/19 07:18:03;;;;;;;7.33;6.73;;;;;;;-145.94;54.72;76009.22;5114329;28;20185;-67
2023/07/19 07:20:30;;;;;;;9.83;6.13;;;;;;;-145.94;54.66;76001.06;5114253;28;20543;-67
2023/07/19 07:22:56;;;;;;;6.33;5.87;;;;;;;-145.94;55.07;75994.94;5114172;28;20205;-67
2023/07/19 07:25:23;;;;;;;7.03;6.30;;;;;;;-145.94;54.22;75997.00;5113978;28;20243;-67
2023/07/19 07:27:49;;;;;;;8.13;5.07;;;;;;;-145.94;53.26;75986.78;5114706;28;20181;-67
2023/07/19 07:30:16;;;;;;;16.33;5.93;;;;;;;-145.94;53.41;75972.53;5114603;28;20584;-67
2023/07/19 07:32:44;;;;;;;12.40;5.03;;;;;;;-145.94;53.11;75976.59;5114255;28;20201;-67
2023/07/19 07:35:10;;;;;;;6.10;5.37;;;;;;;-145.94;52.15;75970.47;5114530;28;20723;-67
2023/07/19 07:37:37;;;;;;;6.70;5.50;;;;;;;-145.94;52.26;75972.53;5114059;28;20220;-67
2023/07/19 07:40:04;;;;;;;7.03;4.13;;;;;;;-145.94;52.39;75958.25;5113929;28;20193;-67
2023/07/19 07:42:31;;;;;;;4.23;4.13;;;;;;;-145.94;50.75;75960.28;5113920;28;20197;-67
2023/07/19 07:44:58;;;;;;;7.17;4.07;;;;;;;-145.94;51.34;75968.44;5114469;28;20250;-67
2023/07/19 07:47:25;;;;;;;4.10;3.27;;;;;;;-145.94;51.06;75956.22;5113864;28;20558;-67
2023/07/19 07:49:51;;;;;;;3.90;3.10;;;;;;;-145.94;52.13;75954.19;5114102;28;20185;-67
2023/07/19 07:52:18;;;;;;;4.37;3.50;;;;;;;-145.94;51.48;75950.09;5113753;28;20578;-67
2023/07/19 07:54:44;;;;;;;5.47;3.07;;;;;;;-145.94;51.06;75935.81;5113734;28;20230;-66
2023/07/19 07:57:11;;;;;;;7.80;3.20;;;;;;;-145.94;50.66;75937.88;5113747;28;20190;-67
2023/07/19 07:59:37;;;;;;;4.33;3.87;;;;;;;-145.94;50.79;75931.75;5113729;28;20555;-67
2023/07/19 08:02:04;;;;;;;3.73;3.47;;;;;;;-145.94;49.76;75915.44;5113512;28;20208;-66
2023/07/19 08:04:32;;;;;;;5.20;3.17;;;;;;;-145.94;50.28;75915.44;5113863;28;20177;-66
2023/07/19 08:06:59;;;;;;;2.83;2.73;;;;;;;-145.94;50.64;75903.22;5113627;28;20281;-67
2023/07/19 08:09:27;;;;;;;3.03;2.83;;;;;;;-145.94;49.85;75880.78;5113612;28;20667;-67
2023/07/19 08:11:53;;;;;;;8.70;3.07;;;;;;;-145.94;49.22;75876.69;5113539;28;20249;-67
2023/07/19 08:14:20;;;;;;;5.97;2.87;;;;;;;-145.94;48.96;75868.56;5114095;28;20256;-67
2023/07/19 08:16:49;;;;;;;2.93;2.83;;;;;;;-145.94;48.74;75860.41;5113782;28;20181;-67
2023/07/19 08:19:16;;;;;;;3.20;3.00;;;;;;;-145.94;49.24;75864.47;5113474;28;20611;-68
2023/07/19 08:21:42;;;;;;;11.13;3.23;;;;;;;-145.94;49.00;75864.47;5113688;28;20209;-67
2023/07/19 08:24:09;;;;;;;5.60;3.33;;;;;;;-145.94;49.17;75854.28;5113444;28;20192;-67
2023/07/19 08:26:36;;;;;;;3.63;3.33;;;;;;;-145.94;49.76;75844.09;5113677;28;20552;-67
2023/07/19 08:29:02;;;;;;;3.33;3.07;;;;;;;-145.94;48.68;75846.13;5115353;28;20185;-67
2023/07/19 08:31:28;;;;;;;3.97;2.67;;;;;;;-145.94;48.71;75842.03;5117691;28;20195;-67
2023/07/19 08:33:55;;;;;;;2.60;2.50;;;;;;;-145.94;50.73;75811.47;5117460;28;20235;-67
2023/07/19 08:36:22;;;;;;;6.83;3.40;;;;;;;-145.94;49.34;75795.16;5117996;28;20204;-67
2023/07/19 08:38:49;;;;;;;4.07;3.67;;;;;;;-145.94;50.28;75776.81;5117420;28;20191;-67
2023/07/19 08:41:20;;;;;;;9.57;3.57;;;;;;;-145.94;48.85;75774.78;5117322;28;20223;-67
2023/07/19 08:43:47;;;;;;;3.40;3.10;;;;;;;-145.94;49.15;75776.81;5117594;28;20188;-67
2023/07/19 08:46:16;;;;;;;3.67;3.37;;;;;;;-145.94;49.33;75756.41;5117706;28;20612;-67
2023/07/19 08:48:47;;;;;;;8.07;3.00;;;;;;;-145.94;48.37;75744.19;5117199;28;20243;-67
2023/07/19 08:51:15;;;;;;;5.10;2.93;;;;;;;-145.94;48.37;75742.16;5117873;28;20230;-67
2023/07/19 08:53:41;;;;;;;3.40;3.27;;;;;;;-145.94;47.80;75734.00;5117123;28;20250;-67
2023/07/19 08:56:10;;;;;;;3.87;3.50;;;;;;;-145.94;46.77;75731.97;5117310;28;20231;-67
2023/07/19 08:58:39;;;;;;;2.83;2.73;;;;;;;-145.94;47.24;75723.81;5117005;28;20185;-66
2023/07/19 09:01:07;;;;;;;3.87;3.53;;;;;;;-145.94;46.03;75727.88;5116997;28;20272;-66
2023/07/19 09:03:34;;;;;;;9.03;3.40;;;;;;;-145.94;46.61;75703.41;5117164;28;20266;-67
2023/07/19 09:06:01;;;;;;;9.03;3.27;;;;;;;-145.94;45.58;75703.41;5117276;28;20675;-67
2023/07/19 09:08:39;;;;;;;5.80;3.20;;;;;;;-145.94;46.68;75695.25;5116842;28;20260;-67
2023/07/19 09:11:06;;;;;;;4.50;2.77;;;;;;;-145.94;45.96;75689.16;5117365;28;20246;-67
2023/07/19 09:13:36;;;;;;;4.00;3.00;;;;;;;-145.94;46.05;75683.03;5116963;28;20280;-67
2023/07/19 09:16:04;;;;;;;4.10;2.73;;;;;;;-145.94;45.92;75685.06;5116749;28;20226;-67
2023/07/19 09:18:35;;;;;;;3.20;3.00;;;;;;;-145.94;45.80;75685.06;5098340;28;20189;-66
2023/07/19 09:21:05;;;;;;;3.10;2.80;;;;;;;-145.94;45.57;75685.06;5116609;28;20260;-67
2023/07/19 09:23:36;;;;;;;3.03;2.57;;;;;;;-145.94;45.88;75672.84;5116545;28;20193;-67
2023/07/19 09:26:04;;;;;;;7.63;3.50;;;;;;;-145.94;46.37;75662.66;5116952;28;20294;-67
2023/07/19 09:28:32;;;;;;;2.80;2.80;;;;;;;-145.94;46.53;75646.34;5116480;28;20238;-67
2023/07/19 09:31:01;;;;;;;4.00;3.07;;;;;;;-145.94;45.73;75642.25;5116408;28;20242;-67
2023/07/19 09:33:47;;;;;;;2.87;2.67;;;;;;;-145.94;44.65;75632.06;5116399;28;20561;-66
2023/07/19 09:36:19;;;;;;;2.83;2.63;;;;;;;-145.94;44.94;75611.69;5116861;28;20178;-66
2023/07/19 09:38:47;;;;;;;5.60;3.67;;;;;;;-145.94;44.08;75609.66;5116825;28;20502;-67
2023/07/19 09:41:13;;;;;;;5.77;3.30;;;;;;;-145.94;44.15;75609.66;5115239;28;20185;-67
2023/07/19 09:43:41;;;;;;;3.37;2.93;;;;;;;-145.94;45.30;75593.34;5116329;28;20625;-68
2023/07/19 09:46:09;;;;;;;9.53;3.27;;;;;;;-145.94;44.45;75599.44;5116059;28;20201;-68
2023/07/19 09:48:35;;;;;;;3.73;3.53;;;;;;;-145.94;44.51;75607.59;5116073;28;20194;-67
2023/07/19 09:51:05;;;;;;;3.70;3.40;;;;;;;-145.94;45.28;75607.59;5116020;28;20238;-68
2023/07/19 09:53:36;;;;;;;7.83;4.10;;;;;;;-145.94;44.88;75607.59;5115882;28;20240;-67
2023/07/19 09:56:04;;;;;;;10.13;3.80;;;;;;;-145.94;44.50;75597.41;5116484;28;20199;-68
2023/07/19 09:58:32;;;;;;;8.27;3.70;;;;;;;-145.94;45.22;75572.94;5116153;28;20253;-67
2023/07/19 10:00:58;;;;;;;3.80;3.60;;;;;;;-145.94;44.98;75554.59;5116388;28;20643;-67
2023/07/19 10:03:25;;;;;;;3.47;2.70;;;;;;;-145.94;43.17;75554.59;5115657;28;20699;-68
2023/07/19 10:05:57;;;;;;;13.63;2.87;;;;;;;-145.94;43.59;75558.69;5115905;28;20736;-67
2023/07/19 10:08:24;;;;;;;5.33;2.90;;;;;;;-145.94;44.17;75562.75;5115835;28;20598;-67
2023/07/19 10:10:59;;;;;;;6.93;3.13;;;;;;;-145.94;43.47;75577.03;5116134;28;20185;-68
2023/07/19 10:13:50;;;;;;;4.00;2.83;;;;;;;-145.94;43.17;75572.94;5115813;28;20606;-67
2023/07/19 10:16:36;;;;;;;3.30;3.13;;;;;;;-145.94;44.63;75534.22;5115820;28;20689;-67
2023/07/19 10:19:12;;;;;;;5.27;3.57;;;;;;;-145.94;43.90;75517.91;5115610;28;20185;-67
2023/07/19 10:22:01;;;;;;;3.43;3.20;;;;;;;-145.94;43.86;75489.38;5115871;28;20213;-67
2023/07/19 10:24:28;;;;;;;3.17;3.10;;;;;;;-145.94;43.49;75499.56;5115704;28;20177;-67
2023/07/19 10:26:54;;;;;;;4.03;3.80;;;;;;;-145.94;43.11;75509.75;5116004;28;20204;-66
2023/07/19 10:29:24;;;;;;;4.43;4.10;;;;;;;-145.94;42.73;75517.91;5115387;28;20193;-66
2023/07/19 10:31:50;;;;;;;4.50;4.20;;;;;;;-145.94;43.93;75517.91;5115448;28;20212;-67
2023/07/19 10:34:28;;;;;;;4.30;3.90;;;;;;;-145.94;43.92;75499.56;5115174;28;20189;-66
2023/07/19 10:37:10;;;;;;;7.03;2.80;;;;;;;-145.94;43.02;75503.63;5115365;28;20209;-67
2023/07/19 10:39:36;;;;;;;2.60;2.50;;;;;;;-145.94;42.98;75499.56;5115248;28;20651;-67
2023/07/19 10:42:03;;;;;;;5.30;2.97;;;;;;;-145.94;44.18;75493.44;5114925;28;20261;-67
2023/07/19 10:44:30;;;;;;;11.87;3.17;;;;;;;-145.94;43.11;75483.25;5114989;28;20181;-67
2023/07/19 10:46:58;;;;;;;3.73;3.63;;;;;;;-145.94;42.53;75481.22;5115094;28;20563;-67
2023/07/19 10:49:24;;;;;;;4.33;3.50;;;;;;;-145.94;43.29;75481.22;5115199;28;20586;-67
2023/07/19 10:51:59;;;;;;;3.47;3.37;;;;;;;-145.94;43.00;75483.25;5114503;28;20205;-66
2023/07/19 10:54:26;;;;;;;2.87;2.60;;;;;;;-145.94;43.20;75477.13;5115376;28;20238;-66
2023/07/19 10:56:58;;;;;;;4.57;3.20;;;;;;;-145.94;43.80;75466.94;5114760;28;20174;-66
2023/07/19 10:59:25;;;;;;;3.30;3.20;;;;;;;-145.94;42.59;75456.75;5114989;28;20177;-67
2023/07/19 11:01:51;;;;;;;6.93;3.43;;;;;;;-145.94;42.95;75456.75;5114550;28;20209;-66
2023/07/19 11:04:18;;;;;;;5.47;3.80;;;;;;;-145.94;42.17;75473.06;5114585;28;20724;-67
2023/07/19 11:06:56;;;;;;;5.80;3.30;;;;;;;-145.94;42.49;75495.50;5114715;28;20197;-67
2023/07/19 11:09:24;;;;;;;7.93;4.13;;;;;;;-145.94;42.64;75493.44;5114463;28;20230;-67
2023/07/19 11:11:51;;;;;;;3.47;3.37;;;;;;;-145.94;42.87;75505.69;5114890;28;20624;-66
2023/07/19 11:14:31;;;;;;;3.43;3.20;;;;;;;-145.94;43.43;75505.69;5114384;28;20189;-66
2023/07/19 11:16:58;;;;;;;17.60;3.77;;;;;;;-145.94;43.47;75493.44;5114324;28;20242;-66
2023/07/19 11:19:52;;;;;;;3.20;3.00;;;;;;;-145.94;42.71;75479.19;5115128;28;20644;-67